createdAt,value
2023-03-16T00:01:42.781Z,1.20
2023-03-16T00:04:09.424Z,1.14
2023-03-16T00:06:36.067Z,1.17
2023-03-16T00:09:02.992Z,0.91
2023-03-16T00:11:29.663Z,1.10
2023-03-16T00:13:56.302Z,1.08
2023-03-16T00:16:23.065Z,0.81
2023-03-16T00:18:49.770Z,0.90
2023-03-16T00:21:16.448Z,1.03
2023-03-16T00:23:43.091Z,1.00
2023-03-16T00:26:09.781Z,0.94
2023-03-16T00:28:36.516Z,1.02
2023-03-16T00:31:03.887Z,0.91
2023-03-16T00:33:30.506Z,1.14
2023-03-16T00:35:57.257Z,1.01
2023-03-16T00:38:23.931Z,0.98
2023-03-16T00:40:50.578Z,1.06
2023-03-16T00:43:17.222Z,1.21
2023-03-16T00:45:43.937Z,1.03
2023-03-16T00:48:10.967Z,1.08
2023-03-16T00:50:38.377Z,1.06
2023-03-16T00:53:05.030Z,0.96
2023-03-16T00:55:31.777Z,0.99
2023-03-16T00:57:58.404Z,1.08
2023-03-16T01:00:25.290Z,0.99
2023-03-16T01:02:52.127Z,1.05
2023-03-16T01:05:18.871Z,1.11
2023-03-16T01:07:45.542Z,0.97
2023-03-16T01:10:12.414Z,0.94
2023-03-16T01:12:39.102Z,0.96
2023-03-16T01:15:06.134Z,0.98
2023-03-16T01:17:32.818Z,0.92
2023-03-16T01:19:59.449Z,0.99
2023-03-16T01:22:26.070Z,0.94
2023-03-16T01:24:52.683Z,0.96
2023-03-16T01:27:19.312Z,1.00
2023-03-16T01:29:45.976Z,0.90
2023-03-16T01:32:12.763Z,0.96
2023-03-16T01:34:39.424Z,0.81
2023-03-16T01:37:06.059Z,1.02
2023-03-16T01:39:32.693Z,1.01
2023-03-16T01:41:59.317Z,0.90
2023-03-16T01:44:26.563Z,1.02
2023-03-16T01:46:53.192Z,1.20
2023-03-16T01:49:29.942Z,1.16
2023-03-16T01:52:08.428Z,1.24
2023-03-16T01:54:44.632Z,1.18
2023-03-16T01:57:19.474Z,1.21
2023-03-16T01:59:52.037Z,1.28
2023-03-16T02:02:20.119Z,1.33
2023-03-16T02:04:50.241Z,1.04
2023-03-16T02:07:17.282Z,0.89
2023-03-16T02:09:44.916Z,0.85
2023-03-16T02:12:11.693Z,1.02
2023-03-16T02:14:38.366Z,0.84
2023-03-16T02:17:05.086Z,0.80
2023-03-16T02:19:47.612Z,0.87
2023-03-16T02:22:14.274Z,0.89
2023-03-16T02:24:40.920Z,0.81
2023-03-16T02:27:16.220Z,0.86
2023-03-16T02:30:07.802Z,0.83
2023-03-16T02:32:34.526Z,0.87
2023-03-16T02:35:01.199Z,0.91
2023-03-16T02:37:27.901Z,0.84
2023-03-16T02:39:54.554Z,1.00
2023-03-16T02:42:22.507Z,1.02
2023-03-16T02:44:52.427Z,1.02
2023-03-16T02:47:33.877Z,0.89
2023-03-16T02:50:00.525Z,1.00
2023-03-16T02:52:27.203Z,0.93
2023-03-16T02:54:53.836Z,0.95
2023-03-16T02:57:20.502Z,1.01
2023-03-16T02:59:47.209Z,0.80
2023-03-16T03:02:13.870Z,0.85
2023-03-16T03:04:40.508Z,0.74
2023-03-16T03:07:07.162Z,0.85
2023-03-16T03:09:33.780Z,0.82
2023-03-16T03:12:00.445Z,0.87
2023-03-16T03:14:27.138Z,0.74
2023-03-16T03:16:53.976Z,0.79
2023-03-16T03:19:20.596Z,0.97
2023-03-16T03:21:47.263Z,0.73
2023-03-16T03:24:13.896Z,0.78
2023-03-16T03:26:40.541Z,0.86
2023-03-16T03:29:07.225Z,0.84
2023-03-16T03:31:33.927Z,1.00
2023-03-16T03:34:00.633Z,1.26
2023-03-16T03:36:27.284Z,1.10
2023-03-16T03:38:53.936Z,0.89
2023-03-16T03:41:20.580Z,0.86
2023-03-16T03:43:47.237Z,0.96
2023-03-16T03:46:14.053Z,0.81
2023-03-16T03:48:40.775Z,0.77
2023-03-16T03:51:07.421Z,0.82
2023-03-16T03:53:34.118Z,0.85
2023-03-16T03:56:00.736Z,0.74
2023-03-16T03:58:27.374Z,0.79
2023-03-16T04:00:54.019Z,1.00
2023-03-16T04:03:20.691Z,0.79
2023-03-16T04:05:47.408Z,0.79
2023-03-16T04:08:14.055Z,0.89
2023-03-16T04:10:41.103Z,0.89
2023-03-16T04:13:07.774Z,0.80
2023-03-16T04:15:34.414Z,0.80
2023-03-16T04:18:01.053Z,0.98
2023-03-16T04:20:27.806Z,0.90
2023-03-16T04:22:54.563Z,0.93
2023-03-16T04:25:21.189Z,0.92
2023-03-16T04:27:47.838Z,0.90
2023-03-16T04:30:14.949Z,0.94
2023-03-16T04:32:41.684Z,0.96
2023-03-16T04:35:08.769Z,0.94
2023-03-16T04:37:35.415Z,0.77
2023-03-16T04:40:02.066Z,0.80
2023-03-16T04:42:28.735Z,0.84
2023-03-16T04:44:55.369Z,0.94
2023-03-16T04:47:21.997Z,0.93
2023-03-16T04:49:48.665Z,1.00
2023-03-16T04:52:15.306Z,0.93
2023-03-16T04:54:41.956Z,0.82
2023-03-16T04:57:08.614Z,0.86
2023-03-16T04:59:35.277Z,0.83
2023-03-16T05:02:01.902Z,0.78
2023-03-16T05:04:28.566Z,0.94
2023-03-16T05:06:55.200Z,0.91
2023-03-16T05:09:21.867Z,0.86
2023-03-16T05:11:48.485Z,0.91
2023-03-16T05:14:15.130Z,1.47
2023-03-16T05:16:41.852Z,1.31
2023-03-16T05:19:08.564Z,1.09
2023-03-16T05:21:35.219Z,1.16
2023-03-16T05:24:01.917Z,1.02
2023-03-16T05:26:28.653Z,1.16
2023-03-16T05:28:55.285Z,1.06
2023-03-16T05:31:22.099Z,1.07
2023-03-16T05:33:48.740Z,1.02
2023-03-16T05:36:15.447Z,1.10
2023-03-16T05:38:42.141Z,1.03
2023-03-16T05:41:08.793Z,1.11
2023-03-16T05:43:35.516Z,1.04
2023-03-16T05:46:02.126Z,1.24
2023-03-16T05:48:28.754Z,1.10
2023-03-16T05:50:55.492Z,1.29
2023-03-16T05:53:22.168Z,1.05
2023-03-16T05:55:52.694Z,1.13
2023-03-16T05:58:19.326Z,1.27
2023-03-16T06:00:45.949Z,1.36
2023-03-16T06:03:12.618Z,1.61
2023-03-16T06:05:39.286Z,1.69
2023-03-16T06:08:07.162Z,2.18
2023-03-16T06:10:33.796Z,1.86
2023-03-16T06:13:00.455Z,1.88
2023-03-16T06:15:29.816Z,1.76
2023-03-16T06:17:56.485Z,1.62
2023-03-16T06:20:23.135Z,1.53
2023-03-16T06:22:49.821Z,1.84
2023-03-16T06:25:16.755Z,1.38
2023-03-16T06:27:43.423Z,1.63
2023-03-16T06:30:10.935Z,1.56
2023-03-16T06:32:37.902Z,1.72
2023-03-16T06:35:04.984Z,1.57
2023-03-16T06:37:31.656Z,1.51
2023-03-16T06:39:58.423Z,1.68
2023-03-16T06:42:25.138Z,1.70
2023-03-16T06:44:51.810Z,1.23
2023-03-16T06:47:18.787Z,1.73
2023-03-16T06:49:45.442Z,1.22
2023-03-16T06:52:12.260Z,1.00
2023-03-16T06:54:38.919Z,1.03
2023-03-16T06:57:05.572Z,1.23
2023-03-16T06:59:32.225Z,1.15
2023-03-16T07:01:58.894Z,1.11
2023-03-16T07:04:25.545Z,1.06
2023-03-16T07:06:52.182Z,0.99
2023-03-16T07:09:18.792Z,1.09
2023-03-16T07:11:45.490Z,1.21
2023-03-16T07:14:12.125Z,0.93
2023-03-16T07:16:38.833Z,0.97
2023-03-16T07:19:05.913Z,1.01
2023-03-16T07:21:32.601Z,1.09
2023-03-16T07:23:59.264Z,1.08
2023-03-16T07:26:25.941Z,0.96
2023-03-16T07:28:52.585Z,1.02
2023-03-16T07:31:19.278Z,0.95
2023-03-16T07:33:45.975Z,0.99
2023-03-16T07:36:12.695Z,1.00
2023-03-16T07:38:39.393Z,0.98
2023-03-16T07:41:06.041Z,1.08
2023-03-16T07:43:32.772Z,1.01
2023-03-16T07:45:59.494Z,1.25
2023-03-16T07:48:26.521Z,1.09
2023-03-16T07:50:53.228Z,1.11
2023-03-16T07:53:19.883Z,1.03
2023-03-16T07:55:47.275Z,1.03
2023-03-16T07:58:13.917Z,1.09
2023-03-16T08:00:40.679Z,1.11
2023-03-16T08:03:10.209Z,1.11
2023-03-16T08:05:36.929Z,1.27
2023-03-16T08:08:03.636Z,1.29
2023-03-16T08:10:30.896Z,1.12
2023-03-16T08:12:58.235Z,1.21
2023-03-16T08:15:27.808Z,1.18
2023-03-16T08:17:57.556Z,1.13
2023-03-16T08:20:24.710Z,1.15
2023-03-16T08:22:51.412Z,1.10
2023-03-16T08:25:18.501Z,1.18
2023-03-16T08:27:45.286Z,1.20
2023-03-16T08:30:12.831Z,1.18
2023-03-16T08:32:39.642Z,1.09
2023-03-16T08:35:08.424Z,1.18
2023-03-16T08:37:35.460Z,1.14
2023-03-16T08:40:03.825Z,1.15
2023-03-16T08:42:33.802Z,1.36
2023-03-16T08:45:00.492Z,1.26
2023-03-16T08:47:30.853Z,1.39
2023-03-16T08:50:02.996Z,1.23
2023-03-16T08:52:32.387Z,1.26
2023-03-16T08:55:03.692Z,1.22
2023-03-16T08:57:33.883Z,1.42
2023-03-16T09:00:00.617Z,1.22
2023-03-16T09:02:28.398Z,1.15
2023-03-16T09:04:56.069Z,1.10
2023-03-16T09:07:28.388Z,1.20
2023-03-16T09:09:57.642Z,1.03
2023-03-16T09:12:26.145Z,1.04
2023-03-16T09:14:53.174Z,1.06
2023-03-16T09:17:19.846Z,1.18
2023-03-16T09:19:51.737Z,1.22
2023-03-16T09:22:20.138Z,1.06
2023-03-16T09:24:47.408Z,1.03
2023-03-16T09:27:14.403Z,1.08
2023-03-16T09:29:41.972Z,1.10
2023-03-16T09:32:09.316Z,1.16
2023-03-16T09:34:35.958Z,1.25
2023-03-16T09:37:02.592Z,1.35
2023-03-16T09:39:29.285Z,1.30
2023-03-16T09:41:58.926Z,1.46
2023-03-16T09:44:53.933Z,1.26
2023-03-16T09:47:25.447Z,1.34
2023-03-16T09:49:52.073Z,1.40
2023-03-16T09:52:43.771Z,1.34
2023-03-16T09:55:26.270Z,1.46
2023-03-16T09:57:53.073Z,1.49
2023-03-16T10:00:34.756Z,1.65
2023-03-16T10:03:24.990Z,1.44
2023-03-16T10:06:03.814Z,1.45
2023-03-16T10:08:36.377Z,1.56
2023-03-16T10:11:26.269Z,1.55
2023-03-16T10:14:11.014Z,1.69
2023-03-16T10:16:49.917Z,1.62
2023-03-16T10:19:33.336Z,1.51
2023-03-16T10:22:00.724Z,1.75
2023-03-16T10:24:52.230Z,1.67
2023-03-16T10:27:20.097Z,1.61
2023-03-16T10:29:47.200Z,1.50
2023-03-16T10:32:15.713Z,1.47
2023-03-16T10:34:44.952Z,1.66
2023-03-16T10:37:13.278Z,1.58
2023-03-16T10:39:39.905Z,1.32
2023-03-16T10:42:16.046Z,1.45
2023-03-16T10:44:42.713Z,1.65
2023-03-16T10:47:17.498Z,1.46
2023-03-16T10:49:44.599Z,1.62
2023-03-16T10:52:18.840Z,1.73
2023-03-16T10:54:54.728Z,1.91
2023-03-16T10:57:32.146Z,1.83
2023-03-16T11:00:35.050Z,1.82
2023-03-16T11:03:01.712Z,1.91
2023-03-16T11:05:33.013Z,2.01
2023-03-16T11:08:00.559Z,1.84
2023-03-16T11:10:40.557Z,1.83
2023-03-16T11:13:17.601Z,1.81
2023-03-16T11:16:28.347Z,1.95
2023-03-16T11:18:58.684Z,1.70
2023-03-16T11:22:04.348Z,1.90
2023-03-16T11:24:51.038Z,1.91
2023-03-16T11:27:22.510Z,1.54
2023-03-16T11:29:57.674Z,1.79
2023-03-16T11:32:27.630Z,1.77
2023-03-16T11:34:57.458Z,1.68
2023-03-16T11:37:33.406Z,1.98
2023-03-16T11:40:07.343Z,1.94
2023-03-16T11:42:38.617Z,2.20
2023-03-16T11:45:14.275Z,2.01
2023-03-16T11:47:40.818Z,2.05
2023-03-16T11:50:31.847Z,1.74
2023-03-16T11:53:00.403Z,1.67
2023-03-16T11:55:34.022Z,1.78
2023-03-16T11:58:18.806Z,1.94
2023-03-16T12:00:51.390Z,1.72
2023-03-16T12:03:27.184Z,1.58
2023-03-16T12:06:16.895Z,1.72
2023-03-16T12:09:12.857Z,1.87
2023-03-16T12:11:57.559Z,1.88
2023-03-16T12:14:31.627Z,1.77
2023-03-16T12:17:05.936Z,1.87
2023-03-16T12:19:45.492Z,2.08
2023-03-16T12:22:36.295Z,2.07
2023-03-16T12:25:03.661Z,1.84
2023-03-16T12:27:32.772Z,1.83
2023-03-16T12:30:25.637Z,1.77
2023-03-16T12:32:55.053Z,1.95
2023-03-16T12:35:28.078Z,1.62
2023-03-16T12:38:08.361Z,1.81
2023-03-16T12:40:44.021Z,1.83
2023-03-16T12:43:16.725Z,1.72
2023-03-16T12:46:04.432Z,1.67
2023-03-16T12:48:32.704Z,1.64
2023-03-16T12:51:00.656Z,1.70
2023-03-16T12:53:55.073Z,1.43
2023-03-16T12:56:35.380Z,1.54
2023-03-16T12:59:03.238Z,1.25
2023-03-16T13:01:37.035Z,1.47
2023-03-16T13:04:23.747Z,1.47
2023-03-16T13:06:51.942Z,1.34
2023-03-16T13:09:22.996Z,1.38
2023-03-16T13:11:49.655Z,1.19
2023-03-16T13:14:35.620Z,1.24
2023-03-16T13:17:22.266Z,1.34
2023-03-16T13:20:06.640Z,1.30
2023-03-16T13:22:47.383Z,1.59
2023-03-16T13:25:29.413Z,1.32
2023-03-16T13:27:56.399Z,1.40
2023-03-16T13:30:31.171Z,1.28
2023-03-16T13:33:06.108Z,1.19
2023-03-16T13:35:32.840Z,1.16
2023-03-16T13:38:04.191Z,1.10
2023-03-16T13:40:31.457Z,1.28
2023-03-16T13:42:58.452Z,1.24
2023-03-16T13:45:32.589Z,1.24
2023-03-16T13:48:00.564Z,1.40
2023-03-16T13:50:27.435Z,1.24
2023-03-16T13:53:04.132Z,1.10
2023-03-16T13:55:33.137Z,1.03
2023-03-16T13:57:59.821Z,1.00
2023-03-16T14:00:30.937Z,1.18
2023-03-16T14:02:58.886Z,1.09
2023-03-16T14:05:35.017Z,1.22
2023-03-16T14:08:01.826Z,1.08
2023-03-16T14:10:31.802Z,1.11
2023-03-16T14:13:07.153Z,1.01
2023-03-16T14:15:33.840Z,1.06
2023-03-16T14:18:39.952Z,1.07
2023-03-16T14:21:08.344Z,0.86
2023-03-16T14:23:41.595Z,1.04
2023-03-16T14:26:13.472Z,1.05
2023-03-16T14:28:40.182Z,1.02
2023-03-16T14:31:10.203Z,1.23
2023-03-16T14:33:38.004Z,1.27
2023-03-16T14:36:15.372Z,1.24
2023-03-16T14:38:42.976Z,1.38
2023-03-16T14:41:12.567Z,1.53
2023-03-16T14:43:45.886Z,1.32
2023-03-16T14:46:15.529Z,1.21
2023-03-16T14:48:42.686Z,1.39
2023-03-16T14:51:12.278Z,1.51
2023-03-16T14:53:39.161Z,1.56
2023-03-16T14:56:11.174Z,1.71
2023-03-16T14:58:37.841Z,1.55
2023-03-16T15:01:04.630Z,1.52
2023-03-16T15:03:35.397Z,1.50
2023-03-16T15:06:02.105Z,1.43
2023-03-16T15:08:30.013Z,1.17
2023-03-16T15:11:00.779Z,1.29
2023-03-16T15:13:27.455Z,1.27
2023-03-16T15:15:54.263Z,1.34
2023-03-16T15:18:20.982Z,1.43
2023-03-16T15:20:47.641Z,1.32
2023-03-16T15:23:15.116Z,1.38
2023-03-16T15:25:45.130Z,1.38
2023-03-16T15:28:17.537Z,1.36
2023-03-16T15:30:45.741Z,1.46
2023-03-16T15:33:12.494Z,1.44
2023-03-16T15:35:39.299Z,1.58
2023-03-16T15:38:16.783Z,1.47
2023-03-16T15:40:43.593Z,1.51
2023-03-16T15:43:14.251Z,1.29
2023-03-16T15:45:40.886Z,1.15
2023-03-16T15:48:09.144Z,0.95
2023-03-16T15:50:38.223Z,0.89
2023-03-16T15:53:07.005Z,1.16
2023-03-16T15:55:41.767Z,0.94
2023-03-16T15:58:16.512Z,0.92
2023-03-16T16:00:43.246Z,0.98
2023-03-16T16:03:11.429Z,1.10
2023-03-16T16:05:38.063Z,1.09
2023-03-16T16:08:04.684Z,1.03
2023-03-16T16:10:31.661Z,1.26
2023-03-16T16:12:58.461Z,1.15
2023-03-16T16:15:32.404Z,1.11
2023-03-16T16:18:20.000Z,1.10
2023-03-16T16:20:46.357Z,1.05
2023-03-16T16:23:13.085Z,1.07
2023-03-16T16:25:40.069Z,1.09
2023-03-16T16:28:15.249Z,1.11
2023-03-16T16:30:41.901Z,1.08
2023-03-16T16:33:28.824Z,0.89
2023-03-16T16:35:58.602Z,0.98
2023-03-16T16:38:25.296Z,0.92
2023-03-16T16:40:52.638Z,1.04
2023-03-16T16:43:37.951Z,1.09
2023-03-16T16:46:14.409Z,1.01
2023-03-16T16:48:44.133Z,0.97
2023-03-16T16:51:18.261Z,1.18
2023-03-16T16:53:48.294Z,1.30
2023-03-16T16:56:15.618Z,1.35
2023-03-16T16:58:42.421Z,1.33
2023-03-16T17:01:13.290Z,1.21
2023-03-16T17:03:40.008Z,1.30
2023-03-16T17:06:06.764Z,1.55
2023-03-16T17:08:33.410Z,1.19
2023-03-16T17:11:00.046Z,1.19
2023-03-16T17:13:37.610Z,1.12
2023-03-16T17:16:04.709Z,1.15
2023-03-16T17:18:31.345Z,1.30
2023-03-16T17:20:57.968Z,1.23
2023-03-16T17:23:31.352Z,1.26
2023-03-16T17:25:58.693Z,1.20
2023-03-16T17:28:25.887Z,1.19
2023-03-16T17:30:53.738Z,1.14
2023-03-16T17:33:20.404Z,1.23
2023-03-16T17:35:47.377Z,1.24
2023-03-16T17:38:21.346Z,1.16
2023-03-16T17:40:48.124Z,1.51
2023-03-16T17:43:23.750Z,1.40
2023-03-16T17:45:51.055Z,1.13
2023-03-16T17:48:22.327Z,1.38
2023-03-16T17:50:49.040Z,2.28
2023-03-16T17:53:16.545Z,2.26
2023-03-16T17:55:43.437Z,2.51
2023-03-16T17:58:23.287Z,1.92
2023-03-16T18:00:49.966Z,2.39
2023-03-16T18:03:16.668Z,2.75
2023-03-16T18:05:43.533Z,4.24
2023-03-16T18:08:22.372Z,4.15
2023-03-16T18:10:50.860Z,5.52
2023-03-16T18:13:20.589Z,5.71
2023-03-16T18:15:47.395Z,5.56
2023-03-16T18:18:16.746Z,4.53
2023-03-16T18:20:43.403Z,3.62
2023-03-16T18:23:15.973Z,3.80
2023-03-16T18:25:42.697Z,4.53
2023-03-16T18:28:10.009Z,6.33
2023-03-16T18:30:37.546Z,9.91
2023-03-16T18:33:05.549Z,8.09
2023-03-16T18:35:32.406Z,4.91
2023-03-16T18:37:59.156Z,4.62
2023-03-16T18:40:26.089Z,4.22
2023-03-16T18:42:52.953Z,4.51
2023-03-16T18:45:19.665Z,5.32
2023-03-16T18:47:53.560Z,7.58
2023-03-16T18:50:26.339Z,5.38
2023-03-16T18:52:53.577Z,5.60
2023-03-16T18:55:22.595Z,6.35
2023-03-16T18:57:49.367Z,6.37
2023-03-16T19:00:17.907Z,6.12
2023-03-16T19:02:44.571Z,5.85
2023-03-16T19:05:18.949Z,6.18
2023-03-16T19:07:47.518Z,6.47
2023-03-16T19:10:28.280Z,6.03
2023-03-16T19:12:54.964Z,5.65
2023-03-16T19:15:23.717Z,5.73
2023-03-16T19:17:50.747Z,4.88
2023-03-16T19:20:19.150Z,4.62
2023-03-16T19:22:45.946Z,4.95
2023-03-16T19:25:26.339Z,4.60
2023-03-16T19:27:53.038Z,5.30
2023-03-16T19:30:27.634Z,6.27
2023-03-16T19:32:54.408Z,5.98
2023-03-16T19:35:21.248Z,6.32
2023-03-16T19:37:47.906Z,6.57
2023-03-16T19:40:15.956Z,6.33
2023-03-16T19:42:42.685Z,6.25
2023-03-16T19:45:30.034Z,6.34
2023-03-16T19:47:56.862Z,6.34
2023-03-16T19:50:24.807Z,6.51
2023-03-16T19:52:51.497Z,5.46
2023-03-16T19:55:21.199Z,5.34
2023-03-16T19:57:48.509Z,6.18
2023-03-16T20:00:33.415Z,6.04
2023-03-16T20:03:00.105Z,6.79
2023-03-16T20:05:28.463Z,6.78
2023-03-16T20:07:57.026Z,7.22
2023-03-16T20:10:28.420Z,8.22
2023-03-16T20:12:58.609Z,8.81
2023-03-16T20:15:28.713Z,7.92
2023-03-16T20:17:55.516Z,7.06
2023-03-16T20:20:24.734Z,7.02
2023-03-16T20:22:51.427Z,6.58
2023-03-16T20:25:18.345Z,5.80
2023-03-16T20:27:45.750Z,5.57
2023-03-16T20:30:16.934Z,5.37
2023-03-16T20:32:44.212Z,5.83
2023-03-16T20:35:17.705Z,5.58
2023-03-16T20:37:44.504Z,6.28
2023-03-16T20:40:11.201Z,6.32
2023-03-16T20:42:37.875Z,4.94
2023-03-16T20:45:15.677Z,5.10
2023-03-16T20:47:42.290Z,4.97
2023-03-16T20:50:17.352Z,4.75
2023-03-16T20:52:44.072Z,4.45
2023-03-16T20:55:14.024Z,4.41
2023-03-16T20:57:40.710Z,4.31
2023-03-16T21:00:17.117Z,4.31
2023-03-16T21:02:43.754Z,4.22
2023-03-16T21:05:10.685Z,4.10
2023-03-16T21:07:37.419Z,4.22
2023-03-16T21:10:04.077Z,4.30
2023-03-16T21:12:34.694Z,4.13
2023-03-16T21:15:01.454Z,4.21
2023-03-16T21:17:32.490Z,4.61
2023-03-16T21:19:59.360Z,4.95
2023-03-16T21:22:30.510Z,4.53
2023-03-16T21:24:57.359Z,7.12
2023-03-16T21:27:28.637Z,7.05
2023-03-16T21:29:55.592Z,5.53
2023-03-16T21:32:23.875Z,5.93
2023-03-16T21:34:50.499Z,4.53
2023-03-16T21:37:18.474Z,3.95
2023-03-16T21:39:45.762Z,4.24
2023-03-16T21:42:12.391Z,4.35
2023-03-16T21:44:39.267Z,4.14
2023-03-16T21:47:17.429Z,4.13
2023-03-16T21:49:44.098Z,4.29
2023-03-16T21:52:20.399Z,4.22
2023-03-16T21:54:47.056Z,3.69
2023-03-16T21:57:14.090Z,3.80
2023-03-16T21:59:40.797Z,3.40
2023-03-16T22:02:26.608Z,3.92
2023-03-16T22:04:53.428Z,3.91
2023-03-16T22:07:20.078Z,3.51
2023-03-16T22:09:46.735Z,3.30
2023-03-16T22:12:13.594Z,3.71
2023-03-16T22:14:40.321Z,3.60
2023-03-16T22:17:06.957Z,3.52
2023-03-16T22:19:33.754Z,3.50
2023-03-16T22:22:00.461Z,3.46
2023-03-16T22:24:28.383Z,3.32
2023-03-16T22:26:55.044Z,3.29
2023-03-16T22:29:25.048Z,3.73
2023-03-16T22:31:57.888Z,3.63
2023-03-16T22:34:32.512Z,3.49
2023-03-16T22:36:59.725Z,3.42
2023-03-16T22:39:26.403Z,3.19
2023-03-16T22:41:53.028Z,2.84
2023-03-16T22:44:22.491Z,2.98
2023-03-16T22:46:49.518Z,2.78
2023-03-16T22:49:26.781Z,2.44
2023-03-16T22:51:54.348Z,2.73
2023-03-16T22:54:21.004Z,2.41
2023-03-16T22:56:47.691Z,2.53
2023-03-16T22:59:16.185Z,2.71
2023-03-16T23:01:43.942Z,2.57
2023-03-16T23:04:23.059Z,2.47
2023-03-16T23:06:52.244Z,2.66
2023-03-16T23:09:20.113Z,3.16
2023-03-16T23:11:46.980Z,3.20
2023-03-16T23:14:24.473Z,3.05
2023-03-16T23:16:51.156Z,3.18
2023-03-16T23:19:28.425Z,3.54
2023-03-16T23:21:56.212Z,3.38
2023-03-16T23:24:22.836Z,3.19
2023-03-16T23:26:50.130Z,2.85
2023-03-16T23:29:16.763Z,2.82
2023-03-16T23:31:43.433Z,2.76
2023-03-16T23:34:14.962Z,2.84
2023-03-16T23:36:41.616Z,2.96
2023-03-16T23:39:08.328Z,3.02
2023-03-16T23:41:35.002Z,2.87
2023-03-16T23:44:01.646Z,3.39
2023-03-16T23:46:28.485Z,3.30
2023-03-16T23:48:55.827Z,3.32
2023-03-16T23:51:30.007Z,3.20
2023-03-16T23:53:57.747Z,3.20
2023-03-16T23:56:24.802Z,3.30
2023-03-16T23:58:51.442Z,3.31
